DGAA/ACC METAR and TAF weather

Enter ICAO airport designator
Station Type Date Time Source
DGAA METAR 2024/04/18 08:00 UTC NOAA

DGAA 180800Z 26008KT 8000 NSC 30/27 Q1011 NOSIG


Station Type Date Time Source
DGAA Decoded METAR 2024/04/18 08:00 UTC NOAA

Accra, Ghana (DGAA) 05-36N 000-10W 69M
Apr 18, 2024 - 04:00 AM EDT / 2024.04.18 0800 UTC
Wind: from the W (260 degrees) at 9 MPH (8 KT):0
Visibility: 4 mile(s):0
Temperature: 86 F (30 C)
Heat index: 101.8 F (38.8 C):1
Dew Point: 80 F (27 C)
Relative Humidity: 84%
Pressure (altimeter): 29.85 in. Hg (1011 hPa)
ob: DGAA 180800Z 26008KT 8000 NSC 30/27 Q1011 NOSIG
cycle: 8

Station Type Date Time Source
DGAA TAF 2024/04/18 18:23 UTC NOAA